Magnolia — WDB7135 — position and weather

sailwx.info

Track history (hours):
 
Tides and Currents Weather Stations Pressure Air Temp Water Temp Dewpoint Dewpoint Depression Visibility Wind Speed Wind Dir Waves Ship Positions

Magnolia

Owner: Magnolia Marine Transport Co, Vicksburg, MS. More information available from US FCC via Universal Licensing System and Coast Guard Vessel Documentation Center.

Last reported at 2018-May-11 02:34 UTC. Time now 2018-May-20 14:04 UTC.
Position N 38°38' W 090°11'.
Warning: this ship's position is 9 days out of date.

Length 215 m.

MMSI: 366936960.

Date/timePositionNaut miles runAvg speedWind from/ knotsBaromVisibWave heightAir tempDewpointWater temp
2018-May-11 02:34N 38°38' W 090°11'210.4
2018-May-11 02:24N 38°39' W 090°11'9 1.0
2018-May-10 17:45N 38°48' W 090°07'2 8.3
2018-May-10 17:29N 38°50' W 090°07'1 2.9
2018-May-10 17:00N 38°51' W 090°07'0 0.0
2018-May-10 16:30N 38°51' W 090°07'0 0.0
2018-May-10 16:00N 38°51' W 090°07'0 0.0
2018-May-10 15:30N 38°51' W 090°07'0 0.0
2018-May-10 15:00N 38°51' W 090°07'0 0.0
2018-May-10 14:30N 38°51' W 090°07'0 0.0
2018-May-10 14:00N 38°51' W 090°07'0 0.0
2018-May-10 13:30N 38°51' W 090°07'0 0.0
2018-May-10 13:00N 38°51' W 090°07'0 0.0
2018-May-10 12:30N 38°51' W 090°07'0 0.0
2018-May-10 12:00N 38°51' W 090°07'0 0.0
2018-May-10 11:30N 38°51' W 090°07'0 0.0
2018-May-10 11:00N 38°51' W 090°07'0 0.9
2018-May-10 10:30N 38°51' W 090°07'0 0.0
2018-May-10 10:00N 38°51' W 090°07'0 0.0
2018-May-10 09:30N 38°51' W 090°07'0 0.0
2018-May-10 09:00N 38°51' W 090°07'0 0.6
2018-May-10 08:30N 38°51' W 090°07'0 0.3
2018-May-10 08:00N 38°51' W 090°07'0 0.3
2018-May-10 07:30N 38°51' W 090°07'0 0.1
2018-May-10 07:00N 38°51' W 090°07'0 0.2
2018-May-10 06:30N 38°51' W 090°07'1 1.8
2018-May-10 06:00N 38°50' W 090°06'2 3.9
2018-May-10 05:30N 38°48' W 090°07'2 5.0
2018-May-10 05:00N 38°46' W 090°08'2 3.2
2018-May-10 04:30N 38°45' W 090°09'2 3.6
2018-May-10 03:56N 38°43' W 090°10'0 0.2
2018-May-10 03:23N 38°43' W 090°10'0 0.0
2018-May-10 03:00N 38°43' W 090°10'0 0.0
2018-May-10 02:30N 38°43' W 090°10'0 0.0
2018-May-10 02:00N 38°43' W 090°10'0 0.0
2018-May-10 01:18N 38°43' W 090°10'0 0.0
2018-May-10 01:00N 38°43' W 090°10'0 0.0
2018-May-09 23:36N 38°43' W 090°10'0 0.0
2018-May-09 23:25N 38°43' W 090°10'0 0.0
2018-May-09 23:00N 38°43' W 090°10'8 0.6
2018-May-09 08:24N 38°50' W 090°06'0 0.0
2018-May-09 08:00N 38°50' W 090°06'0 0.0
2018-May-09 07:30N 38°50' W 090°06'0 0.0
2018-May-09 07:00N 38°50' W 090°06'0 0.1
2018-May-09 06:30N 38°50' W 090°06'0 0.2
2018-May-09 05:58N 38°50' W 090°06'0 0.1
2018-May-09 05:30N 38°50' W 090°06'0 0.0
2018-May-09 05:00N 38°50' W 090°06'0 0.0
2018-May-09 04:30N 38°50' W 090°06'0 0.0
2018-May-09 04:00N 38°50' W 090°06'0 0.0
2018-May-09 03:28N 38°50' W 090°06'0 0.0
2018-May-09 02:59N 38°50' W 090°06'0 0.0
2018-May-09 02:29N 38°50' W 090°06'0 0.0
2018-May-09 01:58N 38°50' W 090°06'0 0.0
2018-May-09 01:30N 38°50' W 090°06'0 0.0
2018-May-09 00:59N 38°50' W 090°06'0 0.0
2018-May-09 00:30N 38°50' W 090°06'0 0.1
2018-May-09 00:00N 38°50' W 090°06'0 0.0
2018-May-08 23:29N 38°50' W 090°06'0 0.0
2018-May-08 23:00N 38°50' W 090°06'0 0.0
2018-May-08 22:30N 38°50' W 090°06'0 0.0
2018-May-08 21:57N 38°50' W 090°06'0 0.0
2018-May-08 21:26N 38°50' W 090°06'0 0.3
2018-May-08 21:00N 38°50' W 090°06'0 0.8
2018-May-08 20:30N 38°51' W 090°07'1 1.3
2018-May-08 20:00N 38°51' W 090°07'1 1.1
2018-May-08 19:30N 38°51' W 090°07'0 0.6
2018-May-08 19:00N 38°51' W 090°06'0 0.4
2018-May-08 18:30N 38°50' W 090°06'0 0.7
2018-May-08 18:00N 38°51' W 090°07'1 1.2
2018-May-08 17:29N 38°51' W 090°07'0 0.2
2018-May-08 17:00N 38°51' W 090°07'1 1.6
2018-May-08 16:30N 38°50' W 090°06'1 1.6
2018-May-08 15:59N 38°51' W 090°07'0 0.0
2018-May-08 15:30N 38°51' W 090°07'1 1.5
2018-May-08 14:59N 38°51' W 090°06'0 0.2
2018-May-08 14:30N 38°50' W 090°06'0 0.0
2018-May-08 13:59N 38°50' W 090°06'0 0.0
2018-May-08 13:28N 38°50' W 090°06'0 0.0
2018-May-08 12:59N 38°50' W 090°06'0 0.0
2018-May-08 12:29N 38°50' W 090°06'0 0.0
2018-May-08 12:00N 38°50' W 090°06'0 0.1
2018-May-08 11:30N 38°50' W 090°06'0 0.0
2018-May-08 10:58N 38°50' W 090°06'0 0.0
2018-May-08 10:30N 38°50' W 090°06'0 0.0
2018-May-08 10:00N 38°50' W 090°06'0 0.0
2018-May-08 09:29N 38°50' W 090°06'0 0.0
2018-May-08 08:59N 38°50' W 090°06'0 0.0
2018-May-08 08:30N 38°50' W 090°06'0 0.0
2018-May-08 08:00N 38°50' W 090°06'0 0.0
2018-May-08 07:30N 38°50' W 090°06'0 0.0
2018-May-08 07:00N 38°50' W 090°06'0 0.0
2018-May-08 06:29N 38°50' W 090°06'0 0.0
2018-May-08 06:00N 38°50' W 090°06'0 0.0
2018-May-08 05:30N 38°50' W 090°06'0 0.0
2018-May-08 04:58N 38°50' W 090°06'0 0.0
2018-May-08 04:30N 38°50' W 090°06'0 0.0
2018-May-08 04:00N 38°50' W 090°06'0 0.0
2018-May-08 03:30N 38°50' W 090°06'0 0.0
2018-May-08 03:00N 38°50' W 090°06'0 0.0
2018-May-08 02:30N 38°50' W 090°06'0 0.0
2018-May-08 02:00N 38°50' W 090°06'0 0.0
2018-May-08 01:30N 38°50' W 090°06'0 0.0
2018-May-08 00:58N 38°50' W 090°06'0 0.1
2018-May-08 00:29N 38°50' W 090°06'0 0.1
2018-May-08 00:00N 38°50' W 090°06'0 0.0
2018-May-07 23:30N 38°50' W 090°06'0 0.0
2018-May-07 23:00N 38°50' W 090°06'0 0.0
2018-May-07 22:25N 38°50' W 090°06'1 1.8
2018-May-07 22:00N 38°51' W 090°07'0 0.4
2018-May-07 21:28N 38°51' W 090°07'0 0.0
2018-May-07 21:00N 38°51' W 090°07'0 0.0
2018-May-07 20:30N 38°51' W 090°07'0 0.0
2018-May-07 20:00N 38°51' W 090°07'0 0.0
2018-May-07 19:30N 38°51' W 090°07'0 0.0
2018-May-07 19:00N 38°51' W 090°07'0 0.0
2018-May-07 18:30N 38°51' W 090°07'0 0.0
2018-May-07 18:00N 38°51' W 090°07'0 0.0
2018-May-07 17:30N 38°51' W 090°07'0 0.0
2018-May-07 17:00N 38°51' W 090°07'0 0.0
2018-May-07 16:30N 38°51' W 090°07'0 0.1
2018-May-07 16:00N 38°51' W 090°07'0 0.1
2018-May-07 15:30N 38°51' W 090°07'0 0.0
2018-May-07 15:00N 38°51' W 090°07'0 0.0
2018-May-07 14:30N 38°51' W 090°07'0 0.0
2018-May-07 14:00N 38°51' W 090°07'1 1.6
2018-May-07 13:30N 38°51' W 090°06'0 0.2
2018-May-07 12:59N 38°50' W 090°06'0 0.0
2018-May-07 12:30N 38°50' W 090°06'0 0.1
2018-May-07 12:00N 38°50' W 090°06'1 1.7
2018-May-07 11:30N 38°51' W 090°07'0 0.3
2018-May-07 10:44N 38°51' W 090°07'0 0.0
2018-May-07 10:28N 38°51' W 090°07'0 0.0
2018-May-07 10:00N 38°51' W 090°07'0 0.0
2018-May-07 09:29N 38°51' W 090°07'0 0.0
2018-May-07 08:56N 38°51' W 090°07'0 0.0
2018-May-07 08:30N 38°51' W 090°07'0 0.0
2018-May-07 07:58N 38°51' W 090°07'0 0.0
2018-May-07 07:30N 38°51' W 090°07'0 0.0
2018-May-07 07:00N 38°51' W 090°07'0 0.0
2018-May-07 06:30N 38°51' W 090°07'0 0.0
2018-May-07 06:00N 38°51' W 090°07'0 0.0
2018-May-07 05:30N 38°51' W 090°07'0 0.0
2018-May-07 04:56N 38°51' W 090°07'0 0.0
2018-May-07 04:30N 38°51' W 090°07'0 0.0
2018-May-07 04:00N 38°51' W 090°07'0 0.0
2018-May-07 03:28N 38°51' W 090°07'0 0.0
2018-May-07 02:55N 38°51' W 090°07'0 0.0
2018-May-07 02:29N 38°51' W 090°07'0 0.0
2018-May-07 01:57N 38°51' W 090°07'0 0.0
2018-May-07 01:29N 38°51' W 090°07'0 0.0
2018-May-07 01:00N 38°51' W 090°07'0 0.0
2018-May-07 00:29N 38°51' W 090°07'2 4.1
2018-May-07 00:00N 38°49' W 090°07'5 9.5
2018-May-06 23:30N 38°45' W 090°09'3 6.0
2018-May-06 23:00N 38°42' W 090°11'4 0.3
2018-May-06 10:19N 38°39' W 090°11'0 0.0
2018-May-06 10:00N 38°39' W 090°11'0 0.0
2018-May-06 09:30N 38°39' W 090°11'0 0.0
2018-May-06 09:00N 38°39' W 090°11'0 0.0
2018-May-06 08:30N 38°39' W 090°11'2 3.6
2018-May-06 08:00N 38°40' W 090°11'2 3.4
2018-May-06 07:27N 38°42' W 090°11'2 3.4
2018-May-06 06:58N 38°44' W 090°10'4 5.4
2018-May-06 06:19N 38°47' W 090°08'2 5.8
2018-May-06 06:00N 38°48' W 090°07'2 4.2
2018-May-06 05:30N 38°50' W 090°06'0 0.0
2018-May-06 05:00N 38°50' W 090°06'0 0.0
2018-May-05 17:42N 38°50' W 090°06'0 0.8
2018-May-05 17:30N 38°51' W 090°06'1 1.4
2018-May-05 17:00N 38°51' W 090°07'1 1.6
2018-May-05 16:28N 38°50' W 090°06'0 0.0
2018-May-05 15:56N 38°50' W 090°06'0 0.0
2018-May-05 15:20N 38°50' W 090°06'0 0.0
2018-May-05 15:00N 38°50' W 090°06'0 0.0
2018-May-05 14:28N 38°50' W 090°06'0 0.0
2018-May-05 13:59N 38°50' W 090°06'0 0.0
2018-May-05 13:29N 38°50' W 090°06'0 0.0
2018-May-05 13:00N 38°50' W 090°06'0 0.0
2018-May-05 12:29N 38°50' W 090°06'0 0.0
2018-May-05 11:47N 38°50' W 090°06'0 0.0
2018-May-05 11:29N 38°50' W 090°06'0 0.0
2018-May-05 11:00N 38°50' W 090°06'0 0.0
2018-May-05 10:29N 38°50' W 090°06'0 0.0
2018-May-05 09:52N 38°50' W 090°06'0 0.0
2018-May-05 09:29N 38°50' W 090°06'0 0.0
2018-May-05 08:58N 38°50' W 090°06'0 0.0
2018-May-05 08:30N 38°50' W 090°06'0 0.0
2018-May-05 08:00N 38°50' W 090°06'0 0.0
2018-May-05 07:29N 38°50' W 090°06'0 0.0
2018-May-05 07:00N 38°50' W 090°06'0 0.0
2018-May-05 06:30N 38°50' W 090°06'1 1.8
2018-May-05 06:00N 38°51' W 090°07'0 0.5
2018-May-05 05:30N 38°51' W 090°07'1 1.7
2018-May-05 04:59N 38°50' W 090°06'0 0.0
2018-May-05 04:30N 38°50' W 090°06'0 0.0
2018-May-05 04:00N 38°50' W 090°06'0 0.0
2018-May-05 03:27N 38°50' W 090°06'0 0.0
2018-May-05 03:00N 38°50' W 090°06'0 0.0
2018-May-05 02:28N 38°50' W 090°06'1 1.9
2018-May-05 02:00N 38°51' W 090°07'0 0.1
2018-May-05 00:35N 38°51' W 090°07'0 1.3
2018-May-05 00:30N 38°51' W 090°07'0 0.5
2018-May-04 23:44N 38°51' W 090°07'0 0.1
2018-May-04 23:30N 38°51' W 090°07'0 0.4
2018-May-04 23:00N 38°51' W 090°07'0 0.4
2018-May-04 22:30N 38°51' W 090°07'0 0.3
2018-May-04 21:45N 38°51' W 090°07'0 0.0
2018-May-04 21:28N 38°51' W 090°07'0 0.0
2018-May-04 20:58N 38°51' W 090°07'0 0.0
2018-May-04 20:24N 38°51' W 090°07'0 0.0
2018-May-04 19:57N 38°51' W 090°07'0 0.0
2018-May-04 19:30N 38°51' W 090°07'0 0.0
2018-May-04 19:00N 38°51' W 090°07'0 0.0
2018-May-04 18:30N 38°51' W 090°07'0 0.2
2018-May-04 18:00N 38°51' W 090°07'0 0.6
2018-May-04 17:30N 38°51' W 090°07'0 0.0
2018-May-04 17:00N 38°51' W 090°07'0 0.0
2018-May-04 16:30N 38°51' W 090°07'0 0.0
2018-May-04 16:00N 38°51' W 090°07'0 0.0
2018-May-04 15:30N 38°51' W 090°07'0 0.0
2018-May-04 14:59N 38°51' W 090°07'0 0.0
2018-May-04 14:30N 38°51' W 090°07'0 0.0
2018-May-04 14:00N 38°51' W 090°07'0 0.1
2018-May-04 13:29N 38°51' W 090°07'0 0.1
2018-May-04 13:00N 38°51' W 090°07'0 0.0
2018-May-04 12:30N 38°51' W 090°07'0 0.0
2018-May-04 12:01N 38°51' W 090°07'0 0.0
2018-May-04 11:30N 38°51' W 090°07'0 0.0
2018-May-04 11:00N 38°51' W 090°07'0 0.0
2018-May-04 10:30N 38°51' W 090°07'0 0.0
2018-May-04 10:00N 38°51' W 090°07'0 0.0
2018-May-04 09:29N 38°51' W 090°07'0 0.0
2018-May-04 09:00N 38°51' W 090°07'0 0.0
2018-May-04 08:30N 38°51' W 090°07'0 0.0
2018-May-04 08:00N 38°51' W 090°07'0 0.0
2018-May-04 07:30N 38°51' W 090°07'0 0.0
2018-May-04 07:00N 38°51' W 090°07'0 0.0
2018-May-04 06:30N 38°51' W 090°07'0 0.0
2018-May-04 06:01N 38°51' W 090°07'0 0.0
2018-May-04 05:30N 38°51' W 090°07'0 0.0
2018-May-04 05:00N 38°51' W 090°07'0 0.0
2018-May-04 04:30N 38°51' W 090°07'0 0.0
2018-May-04 04:00N 38°51' W 090°07'0 0.0
2018-May-04 03:31N 38°51' W 090°07'0 0.1
2018-May-04 03:00N 38°51' W 090°07'0 0.0
2018-May-04 02:30N 38°51' W 090°07'0 0.0
2018-May-04 02:00N 38°51' W 090°07'0 0.0
2018-May-04 01:30N 38°51' W 090°07'0 0.0
2018-May-04 01:00N 38°51' W 090°07'0 0.0
2018-May-04 00:30N 38°51' W 090°07'0 0.0
2018-May-04 00:01N 38°51' W 090°07'0 0.9
2018-May-03 23:30N 38°51' W 090°07'0 0.1
2018-May-03 23:00N 38°51' W 090°07'0 0.7
2018-May-03 22:30N 38°51' W 090°06'0 0.0
2018-May-03 22:01N 38°51' W 090°06'1 1.5
2018-May-03 21:30N 38°51' W 090°07'0 0.0
2018-May-03 21:00N 38°51' W 090°07'0 0.0
2018-May-03 20:30N 38°51' W 090°07'0 0.0
2018-May-03 20:00N 38°51' W 090°07'1 1.3
2018-May-03 19:30N 38°51' W 090°06'0 0.1
2018-May-03 18:58N 38°51' W 090°06'0 0.0
2018-May-03 18:30N 38°51' W 090°06'0 0.0
2018-May-03 17:57N 38°51' W 090°06'0 0.0
2018-May-03 17:30N 38°51' W 090°06'0 0.0
2018-May-03 16:59N 38°51' W 090°06'1 1.4
2018-May-03 16:31N 38°51' W 090°07'0 0.0
2018-May-03 16:00N 38°51' W 090°07'0 0.0
2018-May-03 15:30N 38°51' W 090°07'0 0.0
2018-May-03 15:01N 38°51' W 090°07'0 0.0
2018-May-03 14:30N 38°51' W 090°07'0 0.0
2018-May-03 14:00N 38°51' W 090°07'0 0.4
2018-May-03 13:30N 38°51' W 090°07'0 0.0
2018-May-03 12:47N 38°51' W 090°07'0 0.0
2018-May-03 12:25N 38°51' W 090°07'0 0.0
2018-May-03 12:00N 38°51' W 090°07'0 0.1
2018-May-03 11:30N 38°51' W 090°07'0 0.0
2018-May-03 10:41N 38°51' W 090°07'0 0.0
2018-May-03 10:29N 38°51' W 090°07'0 0.0
2018-May-03 09:59N 38°51' W 090°07'0 0.0
2018-May-03 09:30N 38°51' W 090°07'0 0.0
2018-May-03 09:00N 38°51' W 090°07'2 3.5
2018-May-03 08:30N 38°49' W 090°07'3 5.3
2018-May-03 07:58N 38°47' W 090°08'2 4.7
2018-May-03 07:31N 38°45' W 090°09'3 6.1
2018-May-03 07:00N 38°42' W 090°11'1 1.3
2018-May-03 06:31N 38°42' W 090°11'2 4.7
2018-May-03 06:01N 38°39' W 090°11'  
Track history (hours):
 
Tides and Currents Weather Stations Pressure Air Temp Water Temp Dewpoint Dewpoint Depression Visibility Wind Speed Wind Dir Waves Ship Positions

Magnolia

Owner: Magnolia Marine Transport Co, Vicksburg, MS. More information available from US FCC via Universal Licensing System and Coast Guard Vessel Documentation Center.

Last reported at 2018-May-11 02:34 UTC. Time now 2018-May-20 14:04 UTC.
Position N 38°38' W 090°11'.
Warning: this ship's position is 9 days out of date.

Length 215 m.

MMSI: 366936960.

Date/timePositionNaut miles runAvg speedWind from/ knotsBaromVisibWave heightAir tempDewpointWater temp
2018-May-11 02:34N 38°38' W 090°11'210.4
2018-May-11 02:24N 38°39' W 090°11'9 1.0
2018-May-10 17:45N 38°48' W 090°07'2 8.3
2018-May-10 17:29N 38°50' W 090°07'1 2.9
2018-May-10 17:00N 38°51' W 090°07'0 0.0
2018-May-10 16:30N 38°51' W 090°07'0 0.0
2018-May-10 16:00N 38°51' W 090°07'0 0.0
2018-May-10 15:30N 38°51' W 090°07'0 0.0
2018-May-10 15:00N 38°51' W 090°07'0 0.0
2018-May-10 14:30N 38°51' W 090°07'0 0.0
2018-May-10 14:00N 38°51' W 090°07'0 0.0
2018-May-10 13:30N 38°51' W 090°07'0 0.0
2018-May-10 13:00N 38°51' W 090°07'0 0.0
2018-May-10 12:30N 38°51' W 090°07'0 0.0
2018-May-10 12:00N 38°51' W 090°07'0 0.0
2018-May-10 11:30N 38°51' W 090°07'0 0.0
2018-May-10 11:00N 38°51' W 090°07'0 0.9
2018-May-10 10:30N 38°51' W 090°07'0 0.0
2018-May-10 10:00N 38°51' W 090°07'0 0.0
2018-May-10 09:30N 38°51' W 090°07'0 0.0
2018-May-10 09:00N 38°51' W 090°07'0 0.6
2018-May-10 08:30N 38°51' W 090°07'0 0.3
2018-May-10 08:00N 38°51' W 090°07'0 0.3
2018-May-10 07:30N 38°51' W 090°07'0 0.1
2018-May-10 07:00N 38°51' W 090°07'0 0.2
2018-May-10 06:30N 38°51' W 090°07'1 1.8
2018-May-10 06:00N 38°50' W 090°06'2 3.9
2018-May-10 05:30N 38°48' W 090°07'2 5.0
2018-May-10 05:00N 38°46' W 090°08'2 3.2
2018-May-10 04:30N 38°45' W 090°09'2 3.6
2018-May-10 03:56N 38°43' W 090°10'0 0.2
2018-May-10 03:23N 38°43' W 090°10'0 0.0
2018-May-10 03:00N 38°43' W 090°10'0 0.0
2018-May-10 02:30N 38°43' W 090°10'0 0.0
2018-May-10 02:00N 38°43' W 090°10'0 0.0
2018-May-10 01:18N 38°43' W 090°10'0 0.0
2018-May-10 01:00N 38°43' W 090°10'0 0.0
2018-May-09 23:36N 38°43' W 090°10'0 0.0
2018-May-09 23:25N 38°43' W 090°10'0 0.0
2018-May-09 23:00N 38°43' W 090°10'8 0.6
2018-May-09 08:24N 38°50' W 090°06'0 0.0
2018-May-09 08:00N 38°50' W 090°06'0 0.0
2018-May-09 07:30N 38°50' W 090°06'0 0.0
2018-May-09 07:00N 38°50' W 090°06'0 0.1
2018-May-09 06:30N 38°50' W 090°06'0 0.2
2018-May-09 05:58N 38°50' W 090°06'0 0.1
2018-May-09 05:30N 38°50' W 090°06'0 0.0
2018-May-09 05:00N 38°50' W 090°06'0 0.0
2018-May-09 04:30N 38°50' W 090°06'0 0.0
2018-May-09 04:00N 38°50' W 090°06'0 0.0
2018-May-09 03:28N 38°50' W 090°06'0 0.0
2018-May-09 02:59N 38°50' W 090°06'0 0.0
2018-May-09 02:29N 38°50' W 090°06'0 0.0
2018-May-09 01:58N 38°50' W 090°06'0 0.0
2018-May-09 01:30N 38°50' W 090°06'0 0.0
2018-May-09 00:59N 38°50' W 090°06'0 0.0
2018-May-09 00:30N 38°50' W 090°06'0 0.1
2018-May-09 00:00N 38°50' W 090°06'0 0.0
2018-May-08 23:29N 38°50' W 090°06'0 0.0
2018-May-08 23:00N 38°50' W 090°06'0 0.0
2018-May-08 22:30N 38°50' W 090°06'0 0.0
2018-May-08 21:57N 38°50' W 090°06'0 0.0
2018-May-08 21:26N 38°50' W 090°06'0 0.3
2018-May-08 21:00N 38°50' W 090°06'0 0.8
2018-May-08 20:30N 38°51' W 090°07'1 1.3
2018-May-08 20:00N 38°51' W 090°07'1 1.1
2018-May-08 19:30N 38°51' W 090°07'0 0.6
2018-May-08 19:00N 38°51' W 090°06'0 0.4
2018-May-08 18:30N 38°50' W 090°06'0 0.7
2018-May-08 18:00N 38°51' W 090°07'1 1.2
2018-May-08 17:29N 38°51' W 090°07'0 0.2
2018-May-08 17:00N 38°51' W 090°07'1 1.6
2018-May-08 16:30N 38°50' W 090°06'1 1.6
2018-May-08 15:59N 38°51' W 090°07'0 0.0
2018-May-08 15:30N 38°51' W 090°07'1 1.5
2018-May-08 14:59N 38°51' W 090°06'0 0.2
2018-May-08 14:30N 38°50' W 090°06'0 0.0
2018-May-08 13:59N 38°50' W 090°06'0 0.0
2018-May-08 13:28N 38°50' W 090°06'0 0.0
2018-May-08 12:59N 38°50' W 090°06'0 0.0
2018-May-08 12:29N 38°50' W 090°06'0 0.0
2018-May-08 12:00N 38°50' W 090°06'0 0.1
2018-May-08 11:30N 38°50' W 090°06'0 0.0
2018-May-08 10:58N 38°50' W 090°06'0 0.0
2018-May-08 10:30N 38°50' W 090°06'0 0.0
2018-May-08 10:00N 38°50' W 090°06'0 0.0
2018-May-08 09:29N 38°50' W 090°06'0 0.0
2018-May-08 08:59N 38°50' W 090°06'0 0.0
2018-May-08 08:30N 38°50' W 090°06'0 0.0
2018-May-08 08:00N 38°50' W 090°06'0 0.0
2018-May-08 07:30N 38°50' W 090°06'0 0.0
2018-May-08 07:00N 38°50' W 090°06'0 0.0
2018-May-08 06:29N 38°50' W 090°06'0 0.0
2018-May-08 06:00N 38°50' W 090°06'0 0.0
2018-May-08 05:30N 38°50' W 090°06'0 0.0
2018-May-08 04:58N 38°50' W 090°06'0 0.0
2018-May-08 04:30N 38°50' W 090°06'0 0.0
2018-May-08 04:00N 38°50' W 090°06'0 0.0
2018-May-08 03:30N 38°50' W 090°06'0 0.0
2018-May-08 03:00N 38°50' W 090°06'0 0.0
2018-May-08 02:30N 38°50' W 090°06'0 0.0
2018-May-08 02:00N 38°50' W 090°06'0 0.0
2018-May-08 01:30N 38°50' W 090°06'0 0.0
2018-May-08 00:58N 38°50' W 090°06'0 0.1
2018-May-08 00:29N 38°50' W 090°06'0 0.1
2018-May-08 00:00N 38°50' W 090°06'0 0.0
2018-May-07 23:30N 38°50' W 090°06'0 0.0
2018-May-07 23:00N 38°50' W 090°06'0 0.0
2018-May-07 22:25N 38°50' W 090°06'1 1.8
2018-May-07 22:00N 38°51' W 090°07'0 0.4
2018-May-07 21:28N 38°51' W 090°07'0 0.0
2018-May-07 21:00N 38°51' W 090°07'0 0.0
2018-May-07 20:30N 38°51' W 090°07'0 0.0
2018-May-07 20:00N 38°51' W 090°07'0 0.0
2018-May-07 19:30N 38°51' W 090°07'0 0.0
2018-May-07 19:00N 38°51' W 090°07'0 0.0
2018-May-07 18:30N 38°51' W 090°07'0 0.0
2018-May-07 18:00N 38°51' W 090°07'0 0.0
2018-May-07 17:30N 38°51' W 090°07'0 0.0
2018-May-07 17:00N 38°51' W 090°07'0 0.0
2018-May-07 16:30N 38°51' W 090°07'0 0.1
2018-May-07 16:00N 38°51' W 090°07'0 0.1
2018-May-07 15:30N 38°51' W 090°07'0 0.0
2018-May-07 15:00N 38°51' W 090°07'0 0.0
2018-May-07 14:30N 38°51' W 090°07'0 0.0
2018-May-07 14:00N 38°51' W 090°07'1 1.6
2018-May-07 13:30N 38°51' W 090°06'0 0.2
2018-May-07 12:59N 38°50' W 090°06'0 0.0
2018-May-07 12:30N 38°50' W 090°06'0 0.1
2018-May-07 12:00N 38°50' W 090°06'1 1.7
2018-May-07 11:30N 38°51' W 090°07'0 0.3
2018-May-07 10:44N 38°51' W 090°07'0 0.0
2018-May-07 10:28N 38°51' W 090°07'0 0.0
2018-May-07 10:00N 38°51' W 090°07'0 0.0
2018-May-07 09:29N 38°51' W 090°07'0 0.0
2018-May-07 08:56N 38°51' W 090°07'0 0.0
2018-May-07 08:30N 38°51' W 090°07'0 0.0
2018-May-07 07:58N 38°51' W 090°07'0 0.0
2018-May-07 07:30N 38°51' W 090°07'0 0.0
2018-May-07 07:00N 38°51' W 090°07'0 0.0
2018-May-07 06:30N 38°51' W 090°07'0 0.0
2018-May-07 06:00N 38°51' W 090°07'0 0.0
2018-May-07 05:30N 38°51' W 090°07'0 0.0
2018-May-07 04:56N 38°51' W 090°07'0 0.0
2018-May-07 04:30N 38°51' W 090°07'0 0.0
2018-May-07 04:00N 38°51' W 090°07'0 0.0
2018-May-07 03:28N 38°51' W 090°07'0 0.0
2018-May-07 02:55N 38°51' W 090°07'0 0.0
2018-May-07 02:29N 38°51' W 090°07'0 0.0
2018-May-07 01:57N 38°51' W 090°07'0 0.0
2018-May-07 01:29N 38°51' W 090°07'0 0.0
2018-May-07 01:00N 38°51' W 090°07'0 0.0
2018-May-07 00:29N 38°51' W 090°07'2 4.1
2018-May-07 00:00N 38°49' W 090°07'5 9.5
2018-May-06 23:30N 38°45' W 090°09'3 6.0
2018-May-06 23:00N 38°42' W 090°11'4 0.3
2018-May-06 10:19N 38°39' W 090°11'0 0.0
2018-May-06 10:00N 38°39' W 090°11'0 0.0
2018-May-06 09:30N 38°39' W 090°11'0 0.0
2018-May-06 09:00N 38°39' W 090°11'0 0.0
2018-May-06 08:30N 38°39' W 090°11'2 3.6
2018-May-06 08:00N 38°40' W 090°11'2 3.4
2018-May-06 07:27N 38°42' W 090°11'2 3.4
2018-May-06 06:58N 38°44' W 090°10'4 5.4
2018-May-06 06:19N 38°47' W 090°08'2 5.8
2018-May-06 06:00N 38°48' W 090°07'2 4.2
2018-May-06 05:30N 38°50' W 090°06'0 0.0
2018-May-06 05:00N 38°50' W 090°06'0 0.0
2018-May-05 17:42N 38°50' W 090°06'0 0.8
2018-May-05 17:30N 38°51' W 090°06'1 1.4
2018-May-05 17:00N 38°51' W 090°07'1 1.6
2018-May-05 16:28N 38°50' W 090°06'0 0.0
2018-May-05 15:56N 38°50' W 090°06'0 0.0
2018-May-05 15:20N 38°50' W 090°06'0 0.0
2018-May-05 15:00N 38°50' W 090°06'0 0.0
2018-May-05 14:28N 38°50' W 090°06'0 0.0
2018-May-05 13:59N 38°50' W 090°06'0 0.0
2018-May-05 13:29N 38°50' W 090°06'0 0.0
2018-May-05 13:00N 38°50' W 090°06'0 0.0
2018-May-05 12:29N 38°50' W 090°06'0 0.0
2018-May-05 11:47N 38°50' W 090°06'0 0.0
2018-May-05 11:29N 38°50' W 090°06'0 0.0
2018-May-05 11:00N 38°50' W 090°06'0 0.0
2018-May-05 10:29N 38°50' W 090°06'0 0.0
2018-May-05 09:52N 38°50' W 090°06'0 0.0
2018-May-05 09:29N 38°50' W 090°06'0 0.0
2018-May-05 08:58N 38°50' W 090°06'0 0.0
2018-May-05 08:30N 38°50' W 090°06'0 0.0
2018-May-05 08:00N 38°50' W 090°06'0 0.0
2018-May-05 07:29N 38°50' W 090°06'0 0.0
2018-May-05 07:00N 38°50' W 090°06'0 0.0
2018-May-05 06:30N 38°50' W 090°06'1 1.8
2018-May-05 06:00N 38°51' W 090°07'0 0.5
2018-May-05 05:30N 38°51' W 090°07'1 1.7
2018-May-05 04:59N 38°50' W 090°06'0 0.0
2018-May-05 04:30N 38°50' W 090°06'0 0.0
2018-May-05 04:00N 38°50' W 090°06'0 0.0
2018-May-05 03:27N 38°50' W 090°06'0 0.0
2018-May-05 03:00N 38°50' W 090°06'0 0.0
2018-May-05 02:28N 38°50' W 090°06'1 1.9
2018-May-05 02:00N 38°51' W 090°07'0 0.1
2018-May-05 00:35N 38°51' W 090°07'0 1.3
2018-May-05 00:30N 38°51' W 090°07'0 0.5
2018-May-04 23:44N 38°51' W 090°07'0 0.1
2018-May-04 23:30N 38°51' W 090°07'0 0.4
2018-May-04 23:00N 38°51' W 090°07'0 0.4
2018-May-04 22:30N 38°51' W 090°07'0 0.3
2018-May-04 21:45N 38°51' W 090°07'0 0.0
2018-May-04 21:28N 38°51' W 090°07'0 0.0
2018-May-04 20:58N 38°51' W 090°07'0 0.0
2018-May-04 20:24N 38°51' W 090°07'0 0.0
2018-May-04 19:57N 38°51' W 090°07'0 0.0
2018-May-04 19:30N 38°51' W 090°07'0 0.0
2018-May-04 19:00N 38°51' W 090°07'0 0.0
2018-May-04 18:30N 38°51' W 090°07'0 0.2
2018-May-04 18:00N 38°51' W 090°07'0 0.6
2018-May-04 17:30N 38°51' W 090°07'0 0.0
2018-May-04 17:00N 38°51' W 090°07'0 0.0
2018-May-04 16:30N 38°51' W 090°07'0 0.0
2018-May-04 16:00N 38°51' W 090°07'0 0.0
2018-May-04 15:30N 38°51' W 090°07'0 0.0
2018-May-04 14:59N 38°51' W 090°07'0 0.0
2018-May-04 14:30N 38°51' W 090°07'0 0.0
2018-May-04 14:00N 38°51' W 090°07'0 0.1
2018-May-04 13:29N 38°51' W 090°07'0 0.1
2018-May-04 13:00N 38°51' W 090°07'0 0.0
2018-May-04 12:30N 38°51' W 090°07'0 0.0
2018-May-04 12:01N 38°51' W 090°07'0 0.0
2018-May-04 11:30N 38°51' W 090°07'0 0.0
2018-May-04 11:00N 38°51' W 090°07'0 0.0
2018-May-04 10:30N 38°51' W 090°07'0 0.0
2018-May-04 10:00N 38°51' W 090°07'0 0.0
2018-May-04 09:29N 38°51' W 090°07'0 0.0
2018-May-04 09:00N 38°51' W 090°07'0 0.0
2018-May-04 08:30N 38°51' W 090°07'0 0.0
2018-May-04 08:00N 38°51' W 090°07'0 0.0
2018-May-04 07:30N 38°51' W 090°07'0 0.0
2018-May-04 07:00N 38°51' W 090°07'0 0.0
2018-May-04 06:30N 38°51' W 090°07'0 0.0
2018-May-04 06:01N 38°51' W 090°07'0 0.0
2018-May-04 05:30N 38°51' W 090°07'0 0.0
2018-May-04 05:00N 38°51' W 090°07'0 0.0
2018-May-04 04:30N 38°51' W 090°07'0 0.0
2018-May-04 04:00N 38°51' W 090°07'0 0.0
2018-May-04 03:31N 38°51' W 090°07'0 0.1
2018-May-04 03:00N 38°51' W 090°07'0 0.0
2018-May-04 02:30N 38°51' W 090°07'0 0.0
2018-May-04 02:00N 38°51' W 090°07'0 0.0
2018-May-04 01:30N 38°51' W 090°07'0 0.0
2018-May-04 01:00N 38°51' W 090°07'0 0.0
2018-May-04 00:30N 38°51' W 090°07'0 0.0
2018-May-04 00:01N 38°51' W 090°07'0 0.9
2018-May-03 23:30N 38°51' W 090°07'0 0.1
2018-May-03 23:00N 38°51' W 090°07'0 0.7
2018-May-03 22:30N 38°51' W 090°06'0 0.0
2018-May-03 22:01N 38°51' W 090°06'1 1.5
2018-May-03 21:30N 38°51' W 090°07'0 0.0
2018-May-03 21:00N 38°51' W 090°07'0 0.0
2018-May-03 20:30N 38°51' W 090°07'0 0.0
2018-May-03 20:00N 38°51' W 090°07'1 1.3
2018-May-03 19:30N 38°51' W 090°06'0 0.1
2018-May-03 18:58N 38°51' W 090°06'0 0.0
2018-May-03 18:30N 38°51' W 090°06'0 0.0
2018-May-03 17:57N 38°51' W 090°06'0 0.0
2018-May-03 17:30N 38°51' W 090°06'0 0.0
2018-May-03 16:59N 38°51' W 090°06'1 1.4
2018-May-03 16:31N 38°51' W 090°07'0 0.0
2018-May-03 16:00N 38°51' W 090°07'0 0.0
2018-May-03 15:30N 38°51' W 090°07'0 0.0
2018-May-03 15:01N 38°51' W 090°07'0 0.0
2018-May-03 14:30N 38°51' W 090°07'0 0.0
2018-May-03 14:00N 38°51' W 090°07'0 0.4
2018-May-03 13:30N 38°51' W 090°07'0 0.0
2018-May-03 12:47N 38°51' W 090°07'0 0.0
2018-May-03 12:25N 38°51' W 090°07'0 0.0
2018-May-03 12:00N 38°51' W 090°07'0 0.1
2018-May-03 11:30N 38°51' W 090°07'0 0.0
2018-May-03 10:41N 38°51' W 090°07'0 0.0
2018-May-03 10:29N 38°51' W 090°07'0 0.0
2018-May-03 09:59N 38°51' W 090°07'0 0.0
2018-May-03 09:30N 38°51' W 090°07'0 0.0
2018-May-03 09:00N 38°51' W 090°07'2 3.5
2018-May-03 08:30N 38°49' W 090°07'3 5.3
2018-May-03 07:58N 38°47' W 090°08'2 4.7
2018-May-03 07:31N 38°45' W 090°09'3 6.1
2018-May-03 07:00N 38°42' W 090°11'1 1.3
2018-May-03 06:31N 38°42' W 090°11'2 4.7
2018-May-03 06:01N 38°39' W 090°11'  

Dump ship's entire track history